Blanco, NM (87412)

8:31 AM MST on January 24, 2017 (GMT -0700)
| | Change Station
Active Advisory: Winter Weather Advisory

Elev -9999 ft 0.00 °N, 0.00 °E | Updated 2 minutes ago

Overcast
Overcast
°F
Feels Like °F
N
Wind Variable Wind from North
Gusts mph

Today
High -- | Low -- °F
--% Chance of Precip.
Yesterday
High -- | Low -- °F
Precip. -- in
Pressure 29.71 in
Visibility 6.0 miles
Clouds Scattered Clouds 900 ft
Mostly Cloudy 4000 ft
Dew Point Not available.
Humidity Not available.
Rainfall --
Snow Depth Not available.
7:18 AM 5:28 PM
Waning Crescent, 11% visible
METAR KFMN 241453Z 00000KT 6SM BR SCT009 BKN040 M03/M04 A2965 RMK AO2 SNB28E44 SLP060 P0000 60000 T10331039 51011
Pressure 29.71 in
Visibility 6.0 miles
Clouds Scattered Clouds 900 ft
Mostly Cloudy 4000 ft
Dew Point Not available.
Humidity Not available.
Rainfall --
Snow Depth Not available.
7:18 AM 5:28 PM
Waning Crescent, 11% visible
METAR KFMN 241453Z 00000KT 6SM BR SCT009 BKN040 M03/M04 A2965 RMK AO2 SNB28E44 SLP060 P0000 60000 T10331039 51011

Get Your Daily Forecast Email!

Thanks for signing up!

Be on the lookout for a verification email in your inbox.

You'll start receiving the daily forecast at 8 AM.

×

10-Day Weather Forecast

Almanac

Astronomy

Jan. 24, 2017 Rise Set
Actual Time
Civil Twilight
Nautical Twilight
Astronomical Twilight
Moon
Length of Visible Light
Length of Day
Tomorrow will be .
, % of the Moon is Illuminated

Today's Extremes

State Highs State Lows

Community

WunderPhotos

Upload Photos

1,962,540 photos uploaded!

WunderBlog® & News

Nearby

Air Quality

  Air Quality AQ Index Pollutant
Not available.

Snow Depth

Station Depth Elevation

Earthquake Activity

City Distance Mag. Time & Date
Minimum magnitude displayed is 2.5.

Coastal Water Temperatures

Place Temperature

Stations

Nearby Weather Stations

Station Location Temp. Windchill Dew Point Humidity Wind Precip. Elev Updated Type
                   

Watches & Warnings

Winter Weather Advisory
Issued: 3:23 AM MST Jan. 24, 2017 – National Weather Service

... Winter Weather Advisory now in effect until noon MST today...

* snow accumulations... additional accumulations of 1 or 2 inches
this morning resulting in storm totals of 2 to 5
inches... except 5 to 10 inches above 7500 feet.

* Timing... snow will continue this morning before becoming showery
in nature this afternoon.

* Winds... increasing throughout the morning. Becoming west 10 to
20 mph with gusts to 30 mph by noon.

* Snow levels... cold enough for snow in all locations.

* Local impacts... roads will become snowpacked and icy. Areas of
reduced visibilities in blowing snow will add to the hazardous
travel conditions.

Precautionary/preparedness actions...

A Winter Weather Advisory for snow and blowing snow means that
visibilities will be restricted due to a combination of falling
and blowing snow.



34